createdAt,value
2018-04-27T00:00:54.389Z,0.00
2018-04-27T00:01:54.385Z,0.00
2018-04-27T00:02:54.378Z,0.00
2018-04-27T00:03:54.374Z,0.00
2018-04-27T00:04:54.372Z,0.00
2018-04-27T00:05:54.363Z,0.00
2018-04-27T00:06:54.359Z,0.00
2018-04-27T00:07:54.354Z,0.00
2018-04-27T00:08:54.350Z,0.00
2018-04-27T00:09:54.346Z,0.00
2018-04-27T00:10:54.340Z,0.00
2018-04-27T00:11:54.344Z,0.00
2018-04-27T00:12:54.330Z,0.00
2018-04-27T00:13:54.327Z,0.00
2018-04-27T00:14:54.319Z,0.00
2018-04-27T00:15:54.315Z,0.00
2018-04-27T00:16:54.311Z,0.00
2018-04-27T00:17:54.313Z,0.00
2018-04-27T00:18:54.301Z,0.00
2018-04-27T00:19:54.296Z,0.00
2018-04-27T00:20:54.293Z,0.00
2018-04-27T00:21:54.284Z,0.00
2018-04-27T00:22:54.277Z,0.00
2018-04-27T00:23:54.278Z,0.00
2018-04-27T00:24:54.269Z,0.00
2018-04-27T00:25:54.266Z,0.00
2018-04-27T00:26:54.259Z,0.00
2018-04-27T00:27:54.258Z,0.00
2018-04-27T00:28:54.255Z,0.00
2018-04-27T00:29:54.246Z,0.00
2018-04-27T00:30:54.239Z,0.00
2018-04-27T00:31:54.231Z,0.00
2018-04-27T00:32:54.232Z,0.00
2018-04-27T00:33:54.226Z,0.00
2018-04-27T00:34:54.219Z,0.00
2018-04-27T00:35:54.217Z,0.00
2018-04-27T00:36:54.216Z,0.00
2018-04-27T00:37:54.206Z,0.00
2018-04-27T00:38:54.201Z,0.00
2018-04-27T00:39:54.198Z,0.00
2018-04-27T00:40:54.193Z,0.00
2018-04-27T00:41:54.265Z,0.00
2018-04-27T00:42:54.180Z,0.00
2018-04-27T00:43:54.176Z,0.00
2018-04-27T00:44:54.171Z,0.00
2018-04-27T00:45:54.175Z,0.00
2018-04-27T00:46:54.161Z,0.00
2018-04-27T00:47:54.156Z,0.00
2018-04-27T00:48:54.158Z,0.00
2018-04-27T00:49:54.147Z,0.00
2018-04-27T00:50:54.141Z,0.00
2018-04-27T00:51:54.137Z,0.00
2018-04-27T00:52:54.135Z,0.00
2018-04-27T00:53:54.127Z,0.00
2018-04-27T00:54:54.122Z,0.00
2018-04-27T00:55:54.121Z,0.00
2018-04-27T00:56:54.112Z,0.00
2018-04-27T00:57:54.102Z,0.00
2018-04-27T00:58:54.099Z,0.00
2018-04-27T00:59:54.099Z,0.00
2018-04-27T01:00:54.092Z,0.00
2018-04-27T01:01:54.092Z,0.00
2018-04-27T01:02:54.085Z,0.00
2018-04-27T01:03:54.080Z,0.00
2018-04-27T01:04:54.073Z,0.00
2018-04-27T01:05:54.066Z,0.00
2018-04-27T01:06:54.061Z,0.00
2018-04-27T01:07:54.058Z,0.00
2018-04-27T01:08:54.055Z,0.00
2018-04-27T01:09:54.049Z,0.00
2018-04-27T01:10:54.042Z,0.00
2018-04-27T01:11:54.042Z,0.00
2018-04-27T01:12:54.037Z,0.00
2018-04-27T01:13:54.028Z,0.00
2018-04-27T01:14:54.019Z,0.00
2018-04-27T01:15:54.019Z,0.00
2018-04-27T01:16:54.015Z,0.00
2018-04-27T01:17:54.007Z,0.00
2018-04-27T01:18:54.003Z,0.00
2018-04-27T01:19:53.997Z,0.00
2018-04-27T01:20:53.995Z,0.00
2018-04-27T01:21:53.986Z,0.00
2018-04-27T01:22:53.987Z,0.00
2018-04-27T01:23:53.981Z,0.00
2018-04-27T01:24:53.976Z,0.00
2018-04-27T01:25:53.968Z,0.00
2018-04-27T01:26:53.964Z,0.00
2018-04-27T01:27:53.963Z,0.00
2018-04-27T01:28:53.953Z,0.00
2018-04-27T01:29:53.945Z,0.00
2018-04-27T01:30:53.940Z,0.00
2018-04-27T01:31:53.935Z,0.00
2018-04-27T01:32:53.928Z,0.00
2018-04-27T01:33:53.925Z,0.00
2018-04-27T01:34:53.918Z,0.00
2018-04-27T01:35:53.913Z,0.00
2018-04-27T01:36:53.908Z,0.00
2018-04-27T01:37:53.908Z,0.00
2018-04-27T01:38:53.904Z,0.00
2018-04-27T01:39:53.892Z,0.00
2018-04-27T01:40:53.890Z,0.00
2018-04-27T01:41:53.882Z,0.00
2018-04-27T01:42:53.879Z,0.00
2018-04-27T01:43:53.871Z,0.00
2018-04-27T01:44:53.868Z,0.00
2018-04-27T01:45:53.861Z,0.00
2018-04-27T01:46:53.856Z,0.00
2018-04-27T01:47:53.850Z,0.00
2018-04-27T01:48:53.847Z,0.00
2018-04-27T01:49:53.840Z,0.00
2018-04-27T01:50:53.836Z,0.00
2018-04-27T01:51:53.830Z,0.00
2018-04-27T01:52:53.829Z,0.00
2018-04-27T01:53:53.820Z,0.00
2018-04-27T01:54:53.818Z,0.00
2018-04-27T01:55:53.811Z,0.00
2018-04-27T01:56:53.803Z,0.00
2018-04-27T01:57:53.799Z,0.00
2018-04-27T01:58:53.792Z,0.00
2018-04-27T01:59:53.789Z,0.00
2018-04-27T02:00:53.781Z,0.00
2018-04-27T02:01:53.777Z,0.00
2018-04-27T02:02:53.771Z,0.00
2018-04-27T02:03:53.759Z,0.00
2018-04-27T02:04:53.759Z,0.00
2018-04-27T02:05:53.755Z,0.00
2018-04-27T02:06:53.751Z,0.00
2018-04-27T02:07:53.741Z,0.00
2018-04-27T02:08:53.737Z,0.00
2018-04-27T02:09:53.730Z,0.00
2018-04-27T02:10:53.727Z,0.00
2018-04-27T02:11:53.718Z,0.00
2018-04-27T02:12:53.715Z,0.00
2018-04-27T02:13:53.708Z,0.00
2018-04-27T02:14:53.700Z,0.00
2018-04-27T02:15:53.696Z,0.00
2018-04-27T02:16:53.690Z,0.00
2018-04-27T02:17:53.687Z,0.00
2018-04-27T02:18:53.679Z,0.00
2018-04-27T02:19:53.673Z,0.00
2018-04-27T02:20:53.669Z,0.00
2018-04-27T02:21:53.664Z,0.00
2018-04-27T02:22:53.653Z,0.00
2018-04-27T02:23:53.653Z,0.00
2018-04-27T02:24:53.646Z,0.00
2018-04-27T02:25:53.639Z,0.00
2018-04-27T02:26:53.627Z,0.00
2018-04-27T02:27:53.631Z,0.00
2018-04-27T02:28:53.621Z,0.00
2018-04-27T02:29:53.614Z,0.00
2018-04-27T02:30:53.611Z,0.00
2018-04-27T02:31:53.604Z,0.00
2018-04-27T02:32:53.597Z,0.00
2018-04-27T02:33:53.592Z,0.00
2018-04-27T02:34:53.588Z,0.00
2018-04-27T02:35:53.583Z,0.00
2018-04-27T02:36:53.575Z,0.00
2018-04-27T02:37:53.567Z,0.00
2018-04-27T02:38:53.566Z,0.00
2018-04-27T02:39:53.550Z,0.00
2018-04-27T02:40:53.551Z,0.00
2018-04-27T02:41:53.541Z,0.00
2018-04-27T02:42:53.538Z,0.00
2018-04-27T02:43:53.534Z,0.00
2018-04-27T02:44:53.525Z,0.00
2018-04-27T02:45:53.519Z,0.00
2018-04-27T02:46:53.513Z,0.00
2018-04-27T02:47:53.506Z,0.00
2018-04-27T02:48:53.504Z,0.00
2018-04-27T02:49:53.496Z,0.00
2018-04-27T02:50:53.489Z,0.00
2018-04-27T02:51:53.489Z,0.00
2018-04-27T02:52:53.475Z,0.00
2018-04-27T02:53:53.470Z,0.00
2018-04-27T02:54:53.459Z,0.00
2018-04-27T02:55:53.459Z,0.00
2018-04-27T02:56:53.449Z,0.00
2018-04-27T02:57:53.448Z,0.00
2018-04-27T02:58:53.439Z,0.00
2018-04-27T02:59:53.439Z,0.00
2018-04-27T03:00:53.430Z,0.00
2018-04-27T03:01:53.423Z,0.00
2018-04-27T03:02:53.415Z,0.00
2018-04-27T03:03:53.414Z,0.00
2018-04-27T03:04:53.403Z,0.00
2018-04-27T03:05:53.398Z,0.00
2018-04-27T03:06:53.391Z,0.00
2018-04-27T03:07:53.388Z,0.00
2018-04-27T03:08:53.378Z,4.00
2018-04-27T03:09:53.373Z,4.00
2018-04-27T03:10:53.379Z,0.00
2018-04-27T03:11:53.362Z,0.00
2018-04-27T03:12:53.357Z,4.00
2018-04-27T03:13:53.350Z,0.00
2018-04-27T03:14:53.421Z,4.00
2018-04-27T03:15:53.336Z,4.00
2018-04-27T03:16:53.330Z,4.00
2018-04-27T03:17:53.324Z,4.00
2018-04-27T03:18:53.316Z,8.00
2018-04-27T03:19:53.310Z,8.00
2018-04-27T03:20:53.303Z,8.00
2018-04-27T03:21:53.298Z,12.00
2018-04-27T03:22:53.293Z,8.00
2018-04-27T03:23:53.305Z,12.00
2018-04-27T03:24:53.282Z,16.00
2018-04-27T03:25:53.275Z,16.00
2018-04-27T03:26:53.273Z,16.00
2018-04-27T03:27:53.263Z,20.00
2018-04-27T03:28:53.255Z,28.00
2018-04-27T03:29:53.252Z,28.00
2018-04-27T03:30:53.250Z,32.00
2018-04-27T03:31:53.241Z,36.00
2018-04-27T03:32:53.234Z,40.00
2018-04-27T03:33:53.224Z,48.00
2018-04-27T03:34:53.221Z,52.00
2018-04-27T03:35:53.212Z,56.00
2018-04-27T03:36:53.206Z,60.00
2018-04-27T03:37:53.198Z,68.00
2018-04-27T03:38:53.193Z,76.00
2018-04-27T03:39:53.195Z,88.00
2018-04-27T03:40:53.183Z,92.00
2018-04-27T03:41:53.175Z,104.00
2018-04-27T03:42:53.167Z,116.00
2018-04-27T03:43:53.161Z,124.00
2018-04-27T03:44:53.155Z,136.00
2018-04-27T03:45:53.149Z,152.00
2018-04-27T03:46:53.150Z,164.00
2018-04-27T03:47:53.135Z,180.00
2018-04-27T03:48:53.132Z,192.00
2018-04-27T03:49:53.132Z,208.00
2018-04-27T03:50:53.114Z,224.00
2018-04-27T03:51:53.124Z,240.00
2018-04-27T03:52:53.108Z,256.00
2018-04-27T03:53:53.098Z,272.00
2018-04-27T03:54:53.093Z,288.00
2018-04-27T03:55:53.101Z,308.00
2018-04-27T03:56:53.079Z,324.00
2018-04-27T03:57:53.073Z,348.00
2018-04-27T03:58:53.066Z,364.00
2018-04-27T03:59:53.060Z,392.00
2018-04-27T04:00:53.055Z,412.00
2018-04-27T04:01:53.049Z,436.00
2018-04-27T04:02:53.041Z,460.00
2018-04-27T04:03:53.034Z,488.00
2018-04-27T04:04:53.033Z,512.00
2018-04-27T04:05:53.022Z,536.00
2018-04-27T04:06:53.017Z,560.00
2018-04-27T04:07:53.013Z,588.00
2018-04-27T04:08:53.003Z,612.00
2018-04-27T04:09:53.000Z,640.00
2018-04-27T04:10:52.988Z,664.00
2018-04-27T04:11:52.985Z,692.00
2018-04-27T04:12:52.977Z,720.00
2018-04-27T04:13:52.972Z,748.00
2018-04-27T04:14:52.965Z,776.00
2018-04-27T04:15:52.958Z,808.00
2018-04-27T04:16:52.955Z,848.00
2018-04-27T04:17:52.949Z,892.00
2018-04-27T04:18:52.942Z,932.00
2018-04-27T04:19:52.934Z,972.00
2018-04-27T04:20:52.927Z,1004.00
2018-04-27T04:21:52.921Z,1036.00
2018-04-27T04:22:52.916Z,1072.00
2018-04-27T04:23:52.909Z,1104.00
2018-04-27T04:24:52.902Z,1140.00
2018-04-27T04:25:52.896Z,1172.00
2018-04-27T04:26:52.901Z,1208.00
2018-04-27T04:27:52.889Z,1256.00
2018-04-27T04:28:52.877Z,1300.00
2018-04-27T04:29:52.873Z,1340.00
2018-04-27T04:30:52.864Z,1376.00
2018-04-27T04:31:52.859Z,1420.00
2018-04-27T04:32:52.853Z,1468.00
2018-04-27T04:33:52.848Z,1520.00
2018-04-27T04:34:52.844Z,1580.00
2018-04-27T04:35:52.838Z,1644.00
2018-04-27T04:36:52.828Z,1712.00
2018-04-27T04:37:52.889Z,1808.00
2018-04-27T04:38:52.823Z,1932.00
2018-04-27T04:39:52.809Z,2040.00
2018-04-27T04:40:52.804Z,2148.00
2018-04-27T04:41:52.798Z,2332.00
2018-04-27T04:42:52.797Z,2512.00
2018-04-27T04:43:52.787Z,2676.00
2018-04-27T04:44:52.780Z,2832.00
2018-04-27T04:45:52.771Z,2972.00
2018-04-27T04:46:52.777Z,3084.00
2018-04-27T04:47:52.762Z,3184.00
2018-04-27T04:48:52.760Z,3292.00
2018-04-27T04:49:52.749Z,3420.00
2018-04-27T04:50:52.747Z,3524.00
2018-04-27T04:51:52.741Z,3596.00
2018-04-27T04:52:52.735Z,3532.00
2018-04-27T04:53:52.730Z,3540.00
2018-04-27T04:54:52.721Z,3148.00
2018-04-27T04:55:52.720Z,3872.00
2018-04-27T04:56:52.718Z,3904.00
2018-04-27T04:57:52.712Z,4052.00
2018-04-27T04:58:52.706Z,4004.00
2018-04-27T04:59:52.701Z,4132.00
2018-04-27T05:00:52.695Z,4176.00
2018-04-27T05:01:52.693Z,4244.00
2018-04-27T05:02:52.746Z,4272.00
2018-04-27T05:03:52.676Z,4316.00
2018-04-27T05:04:52.671Z,4332.00
2018-04-27T05:05:52.665Z,4344.00
2018-04-27T05:06:52.665Z,4372.00
2018-04-27T05:07:52.660Z,4408.00
2018-04-27T05:08:52.654Z,4392.00
2018-04-27T05:09:52.653Z,4312.00
2018-04-27T05:10:52.688Z,4384.00
2018-04-27T05:11:52.641Z,4480.00
2018-04-27T05:12:52.638Z,4528.00
2018-04-27T05:13:52.635Z,4612.00
2018-04-27T05:14:52.630Z,4676.00
2018-04-27T05:15:52.626Z,4748.00
2018-04-27T05:16:52.625Z,4824.00
2018-04-27T05:17:52.624Z,4836.00
2018-04-27T05:18:52.616Z,4680.00
2018-04-27T05:19:52.620Z,4724.00
2018-04-27T05:20:52.615Z,5068.00
2018-04-27T05:21:52.604Z,5116.00
2018-04-27T05:22:52.605Z,5144.00
2018-04-27T05:23:52.602Z,5096.00
2018-04-27T05:24:52.600Z,5168.00
2018-04-27T05:25:52.596Z,5188.00
2018-04-27T05:26:52.593Z,5240.00
2018-04-27T05:27:52.597Z,5368.00
2018-04-27T05:28:52.594Z,5492.00
2018-04-27T05:29:52.587Z,5528.00
2018-04-27T05:30:52.587Z,5692.00
2018-04-27T05:31:52.582Z,5848.00
2018-04-27T05:32:52.580Z,5872.00
2018-04-27T05:33:52.576Z,5916.00
2018-04-27T05:34:52.574Z,6044.00
2018-04-27T05:35:52.572Z,6228.00
2018-04-27T05:36:52.573Z,7084.00
2018-04-27T05:37:52.571Z,7692.00
2018-04-27T05:38:52.568Z,7824.00
2018-04-27T05:39:52.572Z,8160.00
2018-04-27T05:40:52.569Z,8836.00
2018-04-27T05:41:52.566Z,8260.00
2018-04-27T05:42:52.560Z,7696.00
2018-04-27T05:43:52.565Z,7548.00
2018-04-27T05:44:52.558Z,6828.00
2018-04-27T05:45:52.559Z,6148.00
2018-04-27T05:46:52.555Z,6292.00
2018-04-27T05:47:52.556Z,6520.00
2018-04-27T05:48:52.626Z,6428.00
2018-04-27T05:49:52.558Z,6284.00
2018-04-27T05:50:52.555Z,6080.00
2018-04-27T05:51:52.550Z,5940.00
2018-04-27T05:52:52.550Z,5732.00
2018-04-27T05:53:52.549Z,5884.00
2018-04-27T05:54:52.549Z,5856.00
2018-04-27T05:55:52.557Z,5836.00
2018-04-27T05:56:52.549Z,5788.00
2018-04-27T05:57:52.548Z,5480.00
2018-04-27T05:58:52.541Z,5388.00
2018-04-27T05:59:52.544Z,5372.00
2018-04-27T06:00:52.543Z,5484.00
2018-04-27T06:01:52.542Z,5664.00
2018-04-27T06:02:52.543Z,5692.00
2018-04-27T06:03:52.539Z,5584.00
2018-04-27T06:04:52.541Z,5732.00
2018-04-27T06:05:52.541Z,5764.00
2018-04-27T06:06:52.540Z,5820.00
2018-04-27T06:07:52.547Z,6012.00
2018-04-27T06:08:52.541Z,5660.00
2018-04-27T06:09:52.543Z,5804.00
2018-04-27T06:10:52.538Z,6420.00
2018-04-27T06:11:52.539Z,7112.00
2018-04-27T06:12:52.533Z,7236.00
2018-04-27T06:13:52.535Z,7384.00
2018-04-27T06:14:52.536Z,6660.00
2018-04-27T06:15:52.534Z,6784.00
2018-04-27T06:16:52.533Z,7508.00
2018-04-27T06:17:52.542Z,7820.00
2018-04-27T06:18:52.533Z,7852.00
2018-04-27T06:19:52.535Z,8184.00
2018-04-27T06:20:52.532Z,11852.00
2018-04-27T06:21:52.536Z,13888.00
2018-04-27T06:22:52.532Z,14336.00
2018-04-27T06:23:52.534Z,10052.00
2018-04-27T06:24:52.541Z,12876.00
2018-04-27T06:25:52.531Z,11292.00
2018-04-27T06:26:52.530Z,13696.00
2018-04-27T06:27:52.530Z,14656.00
2018-04-27T06:28:52.532Z,17984.00
2018-04-27T06:29:52.531Z,18112.00
2018-04-27T06:30:52.527Z,17184.00
2018-04-27T06:31:52.533Z,18016.00
2018-04-27T06:32:52.534Z,19584.00
2018-04-27T06:33:52.532Z,18752.00
2018-04-27T06:34:52.532Z,16704.00
2018-04-27T06:35:52.531Z,14848.00
2018-04-27T06:36:52.536Z,18016.00
2018-04-27T06:37:52.534Z,17600.00
2018-04-27T06:38:52.534Z,18400.00
2018-04-27T06:39:52.537Z,16704.00
2018-04-27T06:40:52.539Z,14912.00
2018-04-27T06:41:52.541Z,12656.00
2018-04-27T06:42:52.539Z,18464.00
2018-04-27T06:43:52.539Z,18912.00
2018-04-27T06:44:52.614Z,22784.00
2018-04-27T06:45:52.545Z,23392.00
2018-04-27T06:46:52.542Z,19904.00
2018-04-27T06:47:52.543Z,25632.00
2018-04-27T06:48:52.545Z,17888.00
2018-04-27T06:49:52.547Z,18464.00
2018-04-27T06:50:52.546Z,18176.00
2018-04-27T06:51:52.545Z,18560.00
2018-04-27T06:52:52.551Z,19840.00
2018-04-27T06:53:52.555Z,20544.00
2018-04-27T06:54:52.553Z,21088.00
2018-04-27T06:55:52.556Z,23424.00
2018-04-27T06:56:52.561Z,24544.00
2018-04-27T06:57:52.558Z,28704.00
2018-04-27T06:58:52.564Z,26176.00
2018-04-27T06:59:52.563Z,24192.00
2018-04-27T07:00:52.564Z,30368.00
2018-04-27T07:01:52.569Z,34272.00
2018-04-27T07:02:52.569Z,33632.00
2018-04-27T07:03:52.566Z,30848.00
2018-04-27T07:04:52.571Z,34464.00
2018-04-27T07:05:52.574Z,37856.00
2018-04-27T07:06:52.578Z,37376.00
2018-04-27T07:07:52.581Z,36928.00
2018-04-27T07:08:52.586Z,36928.00
2018-04-27T07:09:52.587Z,38304.00
2018-04-27T07:10:52.588Z,39104.00
2018-04-27T07:11:52.589Z,36160.00
2018-04-27T07:12:52.600Z,39264.00
2018-04-27T07:13:52.596Z,35392.00
2018-04-27T07:14:52.595Z,40832.00
2018-04-27T07:15:52.600Z,40384.00
2018-04-27T07:16:52.616Z,29728.00
2018-04-27T07:17:52.607Z,36512.00
2018-04-27T07:18:52.614Z,36864.00
2018-04-27T07:19:52.612Z,48416.00
2018-04-27T07:20:52.615Z,36832.00
2018-04-27T07:21:52.624Z,34336.00
2018-04-27T07:22:52.622Z,25920.00
2018-04-27T07:23:52.623Z,31008.00
2018-04-27T07:24:52.629Z,32864.00
2018-04-27T07:25:52.729Z,34496.00
2018-04-27T07:26:52.633Z,38624.00
2018-04-27T07:27:52.637Z,37824.00
2018-04-27T07:28:52.635Z,42816.00
2018-04-27T07:29:52.645Z,45984.00
2018-04-27T07:30:52.644Z,49120.00
2018-04-27T07:31:52.649Z,44416.00
2018-04-27T07:32:52.654Z,39520.00
2018-04-27T07:33:52.733Z,42784.00
2018-04-27T07:34:52.662Z,32640.00
2018-04-27T07:35:52.665Z,44576.00
2018-04-27T07:36:52.668Z,49920.00
2018-04-27T07:37:52.672Z,51456.00
2018-04-27T07:38:52.676Z,47584.00
2018-04-27T07:39:52.680Z,44416.00
2018-04-27T07:40:52.687Z,41888.00
2018-04-27T07:41:52.688Z,46048.00
2018-04-27T07:42:52.691Z,41856.00
2018-04-27T07:43:52.697Z,36384.00
2018-04-27T07:44:52.707Z,40544.00
2018-04-27T07:45:52.704Z,36320.00
2018-04-27T07:46:52.707Z,43936.00
2018-04-27T07:47:52.711Z,40576.00
2018-04-27T07:48:52.715Z,40192.00
2018-04-27T07:49:52.720Z,54048.00
2018-04-27T07:50:52.727Z,53792.00
2018-04-27T07:51:52.732Z,34720.00
2018-04-27T07:52:52.736Z,40896.00
2018-04-27T07:53:52.745Z,41600.00
2018-04-27T07:54:52.742Z,41888.00
2018-04-27T07:55:52.749Z,41632.00
2018-04-27T07:56:52.751Z,52640.00
2018-04-27T07:57:52.755Z,54880.00
2018-04-27T07:58:52.760Z,48192.00
2018-04-27T07:59:52.767Z,43968.00
2018-04-27T08:00:52.776Z,52128.00
2018-04-27T08:01:52.777Z,62848.00
2018-04-27T08:02:52.779Z,65408.00
2018-04-27T08:03:52.786Z,56288.00
2018-04-27T08:04:52.791Z,51424.00
2018-04-27T08:05:52.797Z,52896.00
2018-04-27T08:06:52.803Z,51072.00
2018-04-27T08:07:52.808Z,47808.00
2018-04-27T08:08:52.821Z,47680.00
2018-04-27T08:09:52.820Z,52256.00
2018-04-27T08:10:52.825Z,43744.00
2018-04-27T08:11:52.833Z,45440.00
2018-04-27T08:12:52.837Z,45248.00
2018-04-27T08:13:52.843Z,53504.00
2018-04-27T08:14:52.846Z,44064.00
2018-04-27T08:15:52.854Z,36800.00
2018-04-27T08:16:52.859Z,51840.00
2018-04-27T08:17:52.861Z,59328.00
2018-04-27T08:18:52.870Z,61664.00
2018-04-27T08:19:52.875Z,63456.00
2018-04-27T08:20:52.877Z,28864.00
2018-04-27T08:21:52.884Z,67072.00
2018-04-27T08:22:52.893Z,66976.00
2018-04-27T08:23:52.896Z,64000.00
2018-04-27T08:24:52.903Z,62656.00
2018-04-27T08:25:52.909Z,63616.00
2018-04-27T08:26:52.917Z,65920.00
2018-04-27T08:27:52.921Z,66272.00
2018-04-27T08:28:52.928Z,36896.00
2018-04-27T08:29:52.932Z,16608.00
2018-04-27T08:30:52.940Z,14308.00
2018-04-27T08:31:52.947Z,7052.00
2018-04-27T08:32:52.952Z,7772.00
2018-04-27T08:33:52.966Z,17376.00
2018-04-27T08:34:52.965Z,32544.00
2018-04-27T08:35:52.980Z,51712.00
2018-04-27T08:36:52.980Z,47488.00
2018-04-27T08:37:52.981Z,30112.00
2018-04-27T08:38:52.986Z,24960.00
2018-04-27T08:39:52.988Z,13176.00
2018-04-27T08:40:53.000Z,7596.00
2018-04-27T08:41:53.004Z,6332.00
2018-04-27T08:42:53.015Z,5884.00
2018-04-27T08:43:53.060Z,5816.00
2018-04-27T08:44:53.015Z,6000.00
2018-04-27T08:45:53.022Z,6288.00
2018-04-27T08:46:53.023Z,5808.00
2018-04-27T08:47:53.029Z,5812.00
2018-04-27T08:48:53.033Z,6132.00
2018-04-27T08:49:53.038Z,7696.00
2018-04-27T08:50:53.040Z,9120.00
2018-04-27T08:51:53.040Z,7388.00
2018-04-27T08:52:53.057Z,7248.00
2018-04-27T08:53:53.049Z,6168.00
2018-04-27T08:54:53.100Z,5432.00
2018-04-27T08:55:53.060Z,5064.00
2018-04-27T08:56:53.058Z,5588.00
2018-04-27T08:57:53.061Z,5880.00
2018-04-27T08:58:53.064Z,6564.00
2018-04-27T08:59:53.067Z,6648.00
2018-04-27T09:00:53.073Z,7336.00
2018-04-27T09:01:53.073Z,7960.00
2018-04-27T09:02:53.070Z,7408.00
2018-04-27T09:03:53.075Z,6252.00
2018-04-27T09:04:53.077Z,6388.00
2018-04-27T09:05:53.088Z,6936.00
2018-04-27T09:06:53.082Z,6204.00
2018-04-27T09:07:53.084Z,5656.00
2018-04-27T09:08:53.087Z,5192.00
2018-04-27T09:09:53.087Z,4988.00
2018-04-27T09:10:53.091Z,5268.00
2018-04-27T09:11:53.098Z,5764.00
2018-04-27T09:12:53.107Z,5428.00
2018-04-27T09:13:53.095Z,5732.00
2018-04-27T09:14:53.094Z,5756.00
2018-04-27T09:15:53.102Z,5572.00
2018-04-27T09:16:53.100Z,6212.00
2018-04-27T09:17:53.104Z,6940.00
2018-04-27T09:18:53.103Z,7336.00
2018-04-27T09:19:53.104Z,6860.00
2018-04-27T09:20:53.108Z,6524.00
2018-04-27T09:21:53.104Z,6908.00
2018-04-27T09:22:53.108Z,6852.00
2018-04-27T09:23:53.110Z,6244.00
2018-04-27T09:24:53.105Z,5508.00
2018-04-27T09:25:53.113Z,5320.00
2018-04-27T09:26:53.168Z,5324.00
2018-04-27T09:27:53.116Z,5272.00
2018-04-27T09:28:53.114Z,5332.00
2018-04-27T09:29:53.121Z,5116.00
2018-04-27T09:30:53.118Z,5020.00
2018-04-27T09:31:53.118Z,4880.00
2018-04-27T09:32:53.120Z,4972.00
2018-04-27T09:33:53.121Z,5896.00
2018-04-27T09:34:53.121Z,5328.00
2018-04-27T09:35:53.125Z,5264.00
2018-04-27T09:36:53.124Z,6296.00
2018-04-27T09:37:53.125Z,6772.00
2018-04-27T09:38:53.127Z,6740.00
2018-04-27T09:39:53.127Z,6956.00
2018-04-27T09:40:53.130Z,6788.00
2018-04-27T09:41:53.128Z,6688.00
2018-04-27T09:42:53.131Z,7112.00
2018-04-27T09:43:53.128Z,6828.00
2018-04-27T09:44:53.125Z,6904.00
2018-04-27T09:45:53.130Z,6828.00
2018-04-27T09:46:53.132Z,6100.00
2018-04-27T09:47:53.132Z,5768.00
2018-04-27T09:48:53.134Z,5924.00
2018-04-27T09:49:53.136Z,5732.00
2018-04-27T09:50:53.140Z,5580.00
2018-04-27T09:51:53.137Z,5472.00
2018-04-27T09:52:53.143Z,5156.00
2018-04-27T09:53:53.142Z,4648.00
2018-04-27T09:54:53.140Z,4328.00
2018-04-27T09:55:53.140Z,4064.00
2018-04-27T09:56:53.144Z,4648.00
2018-04-27T09:57:53.143Z,4300.00
2018-04-27T09:58:53.141Z,4676.00
2018-04-27T09:59:53.143Z,5020.00
2018-04-27T10:00:53.144Z,4908.00
2018-04-27T10:01:53.147Z,4752.00
2018-04-27T10:02:53.145Z,4452.00
2018-04-27T10:03:53.147Z,4176.00
2018-04-27T10:04:53.148Z,4108.00
2018-04-27T10:05:53.150Z,4124.00
2018-04-27T10:06:53.151Z,4368.00
2018-04-27T10:07:53.149Z,4672.00
2018-04-27T10:08:53.148Z,5028.00
2018-04-27T10:09:53.157Z,5256.00
2018-04-27T10:10:53.152Z,5264.00
2018-04-27T10:11:53.159Z,5160.00
2018-04-27T10:12:53.153Z,4688.00
2018-04-27T10:13:53.156Z,4036.00
2018-04-27T10:14:53.153Z,3696.00
2018-04-27T10:15:53.156Z,3532.00
2018-04-27T10:16:53.156Z,3444.00
2018-04-27T10:17:53.155Z,3428.00
2018-04-27T10:18:53.155Z,3580.00
2018-04-27T10:19:53.158Z,3868.00
2018-04-27T10:20:53.161Z,4464.00
2018-04-27T10:21:53.159Z,4776.00
2018-04-27T10:22:53.162Z,4668.00
2018-04-27T10:23:53.164Z,4524.00
2018-04-27T10:24:53.162Z,4468.00
2018-04-27T10:25:53.163Z,4472.00
2018-04-27T10:26:53.163Z,4452.00
2018-04-27T10:27:53.167Z,4280.00
2018-04-27T10:28:53.172Z,4164.00
2018-04-27T10:29:53.167Z,4148.00
2018-04-27T10:30:53.171Z,3996.00
2018-04-27T10:31:53.168Z,3928.00
2018-04-27T10:32:53.171Z,4260.00
2018-04-27T10:33:53.168Z,4292.00
2018-04-27T10:34:53.171Z,4200.00
2018-04-27T10:35:53.168Z,4172.00
2018-04-27T10:36:53.171Z,4184.00
2018-04-27T10:37:53.173Z,4124.00
2018-04-27T10:38:53.171Z,4076.00
2018-04-27T10:39:53.177Z,3988.00
2018-04-27T10:40:53.173Z,4048.00
2018-04-27T10:41:53.174Z,3624.00
2018-04-27T10:42:53.173Z,3300.00
2018-04-27T10:43:53.179Z,3324.00
2018-04-27T10:44:53.175Z,3444.00
2018-04-27T10:45:53.177Z,3596.00
2018-04-27T10:46:53.176Z,3828.00
2018-04-27T10:47:53.179Z,3584.00
2018-04-27T10:48:53.182Z,3484.00
2018-04-27T10:49:53.184Z,3700.00
2018-04-27T10:50:53.174Z,3552.00
2018-04-27T10:51:53.180Z,3964.00
2018-04-27T10:52:53.179Z,3900.00
2018-04-27T10:53:53.185Z,3936.00
2018-04-27T10:54:53.182Z,4560.00
2018-04-27T10:55:53.182Z,5372.00
2018-04-27T10:56:53.181Z,5504.00
2018-04-27T10:57:53.187Z,5068.00
2018-04-27T10:58:53.184Z,4972.00
2018-04-27T10:59:53.184Z,5128.00
2018-04-27T11:00:53.183Z,4504.00
2018-04-27T11:01:53.187Z,4428.00
2018-04-27T11:02:53.187Z,4572.00
2018-04-27T11:03:53.188Z,4396.00
2018-04-27T11:04:53.193Z,4300.00
2018-04-27T11:05:53.190Z,4348.00
2018-04-27T11:06:53.190Z,4268.00
2018-04-27T11:07:53.190Z,4188.00
2018-04-27T11:08:53.188Z,3972.00
2018-04-27T11:09:53.190Z,3760.00
2018-04-27T11:10:53.201Z,3592.00
2018-04-27T11:11:53.190Z,3524.00
2018-04-27T11:12:53.193Z,3528.00
2018-04-27T11:13:53.196Z,3760.00
2018-04-27T11:14:53.198Z,4032.00
2018-04-27T11:15:53.197Z,4244.00
2018-04-27T11:16:53.528Z,4180.00
2018-04-27T11:17:53.198Z,3788.00
2018-04-27T11:18:53.200Z,4132.00
2018-04-27T11:19:53.206Z,4040.00
2018-04-27T11:20:53.203Z,3960.00
2018-04-27T11:21:53.205Z,3504.00
2018-04-27T11:22:53.201Z,3380.00
2018-04-27T11:23:53.207Z,3324.00
2018-04-27T11:24:53.207Z,3724.00
2018-04-27T11:25:53.201Z,3720.00
2018-04-27T11:26:53.215Z,3668.00
2018-04-27T11:27:53.211Z,3784.00
2018-04-27T11:28:53.205Z,4048.00
2018-04-27T11:29:53.210Z,4488.00
2018-04-27T11:30:53.208Z,4316.00
2018-04-27T11:31:53.209Z,4648.00
2018-04-27T11:32:53.225Z,5052.00
2018-04-27T11:33:53.209Z,5016.00
2018-04-27T11:34:53.214Z,4920.00
2018-04-27T11:35:53.213Z,4348.00
2018-04-27T11:36:53.219Z,3992.00
2018-04-27T11:37:53.219Z,3676.00
2018-04-27T11:38:53.218Z,4072.00
2018-04-27T11:39:53.219Z,4184.00
2018-04-27T11:40:53.214Z,4224.00
2018-04-27T11:41:53.220Z,4624.00
2018-04-27T11:42:53.218Z,4480.00
2018-04-27T11:43:53.220Z,4092.00
2018-04-27T11:44:53.223Z,3744.00
2018-04-27T11:45:53.222Z,3900.00
2018-04-27T11:46:53.220Z,3840.00
2018-04-27T11:47:53.224Z,3616.00
2018-04-27T11:48:53.224Z,3728.00
2018-04-27T11:49:53.227Z,3972.00
2018-04-27T11:50:53.227Z,4308.00
2018-04-27T11:51:53.227Z,4400.00
2018-04-27T11:52:53.228Z,4624.00
2018-04-27T11:53:53.232Z,5140.00
2018-04-27T11:54:53.236Z,6044.00
2018-04-27T11:55:53.234Z,6656.00
2018-04-27T11:56:53.231Z,6912.00
2018-04-27T11:57:53.234Z,7048.00
2018-04-27T11:58:53.234Z,7268.00
2018-04-27T11:59:53.235Z,6688.00
2018-04-27T12:00:53.236Z,6356.00
2018-04-27T12:01:53.238Z,6124.00
2018-04-27T12:02:53.235Z,5692.00
2018-04-27T12:03:53.239Z,5484.00
2018-04-27T12:04:53.238Z,5680.00
2018-04-27T12:05:53.241Z,5756.00
2018-04-27T12:06:53.242Z,6116.00
2018-04-27T12:07:53.243Z,6476.00
2018-04-27T12:08:53.246Z,6524.00
2018-04-27T12:09:53.246Z,6264.00
2018-04-27T12:10:53.247Z,6120.00
2018-04-27T12:11:53.248Z,6296.00
2018-04-27T12:12:53.250Z,6540.00
2018-04-27T12:13:53.250Z,6768.00
2018-04-27T12:14:53.255Z,6672.00
2018-04-27T12:15:53.254Z,6132.00
2018-04-27T12:16:53.256Z,5944.00
2018-04-27T12:17:53.257Z,5820.00
2018-04-27T12:18:53.257Z,6016.00
2018-04-27T12:19:53.257Z,6232.00
2018-04-27T12:20:53.257Z,6600.00
2018-04-27T12:21:53.291Z,7004.00
2018-04-27T12:22:53.261Z,7332.00